createdAt,value
2022-12-16T00:01:58.626Z,2.26
2022-12-16T00:04:44.788Z,2.37
2022-12-16T00:07:20.434Z,2.41
2022-12-16T00:10:04.382Z,2.46
2022-12-16T00:12:36.236Z,2.47
2022-12-16T00:15:26.007Z,2.42
2022-12-16T00:18:12.699Z,2.47
2022-12-16T00:20:58.884Z,2.64
2022-12-16T00:23:48.495Z,2.56
2022-12-16T00:26:31.225Z,2.71
2022-12-16T00:29:17.868Z,2.73
2022-12-16T00:32:03.756Z,2.76
2022-12-16T00:34:48.552Z,2.62
2022-12-16T00:37:32.791Z,2.65
2022-12-16T00:40:11.293Z,2.66
2022-12-16T00:42:48.717Z,2.70
2022-12-16T00:45:42.686Z,2.68
2022-12-16T00:48:29.599Z,2.61
2022-12-16T00:51:13.735Z,2.59
2022-12-16T00:54:03.950Z,2.77
2022-12-16T00:56:46.048Z,2.85
2022-12-16T00:59:26.708Z,2.77
2022-12-16T01:02:10.371Z,2.72
2022-12-16T01:04:53.678Z,2.58
2022-12-16T01:07:29.474Z,2.74
2022-12-16T01:10:05.197Z,2.75
2022-12-16T01:12:38.399Z,2.86
2022-12-16T01:15:18.599Z,2.92
2022-12-16T01:17:59.309Z,2.73
2022-12-16T01:20:40.363Z,2.55
2022-12-16T01:23:20.992Z,2.60
2022-12-16T01:26:03.722Z,2.70
2022-12-16T01:28:42.672Z,2.74
2022-12-16T01:31:23.062Z,2.86
2022-12-16T01:33:58.515Z,2.82
2022-12-16T01:36:47.774Z,2.86
2022-12-16T01:39:25.249Z,2.79
2022-12-16T01:42:05.695Z,2.85
2022-12-16T01:44:54.930Z,2.81
2022-12-16T01:47:40.404Z,2.90
2022-12-16T01:50:25.911Z,2.95
2022-12-16T01:53:09.994Z,2.97
2022-12-16T01:55:54.018Z,3.02
2022-12-16T01:58:39.378Z,2.98
2022-12-16T02:01:18.094Z,3.08
2022-12-16T02:03:57.798Z,3.04
2022-12-16T02:06:33.346Z,3.11
2022-12-16T02:09:17.910Z,3.12
2022-12-16T02:12:44.369Z,3.02
2022-12-16T02:15:44.765Z,3.02
2022-12-16T02:18:55.763Z,2.86
2022-12-16T02:22:07.345Z,2.96
2022-12-16T02:25:17.396Z,3.14
2022-12-16T02:28:04.452Z,3.01
2022-12-16T02:31:13.771Z,3.23
2022-12-16T02:34:21.186Z,3.16
2022-12-16T02:37:24.896Z,3.04
2022-12-16T02:40:11.215Z,2.98
2022-12-16T02:43:36.465Z,3.15
2022-12-16T02:46:18.539Z,3.16
2022-12-16T02:49:30.397Z,3.28
2022-12-16T02:52:20.000Z,3.22
2022-12-16T02:55:04.977Z,3.19
2022-12-16T02:58:15.074Z,3.21
2022-12-16T03:01:08.646Z,3.29
2022-12-16T03:04:33.031Z,3.33
2022-12-16T03:07:23.403Z,3.18
2022-12-16T03:10:07.722Z,3.35
2022-12-16T03:12:47.422Z,3.45
2022-12-16T03:15:35.172Z,3.51
2022-12-16T03:18:18.457Z,3.52
2022-12-16T03:21:02.096Z,3.37
2022-12-16T03:24:14.148Z,3.35
2022-12-16T03:27:18.877Z,3.48
2022-12-16T03:30:25.566Z,3.46
2022-12-16T03:33:18.579Z,3.43
2022-12-16T03:36:16.089Z,3.39
2022-12-16T03:38:56.896Z,3.43
2022-12-16T03:41:41.591Z,3.38
2022-12-16T03:44:20.001Z,3.42
2022-12-16T03:47:08.099Z,3.46
2022-12-16T03:49:52.289Z,3.44
2022-12-16T03:52:38.926Z,3.66
2022-12-16T03:55:24.680Z,3.74
2022-12-16T03:58:07.887Z,3.75
2022-12-16T04:00:51.237Z,3.48
2022-12-16T04:03:32.750Z,3.64
2022-12-16T04:06:23.204Z,3.66
2022-12-16T04:09:07.403Z,3.79
2022-12-16T04:12:07.999Z,3.65
2022-12-16T04:15:07.282Z,3.80
2022-12-16T04:18:00.926Z,3.75
2022-12-16T04:21:05.598Z,3.78
2022-12-16T04:24:16.575Z,3.80
2022-12-16T04:27:15.588Z,3.79
2022-12-16T04:30:13.318Z,3.77
2022-12-16T04:33:24.249Z,3.79
2022-12-16T04:36:18.076Z,3.77
2022-12-16T04:39:13.127Z,3.88
2022-12-16T04:42:12.280Z,3.86
2022-12-16T04:45:09.198Z,3.78
2022-12-16T04:48:02.972Z,3.87
2022-12-16T04:50:59.825Z,3.76
2022-12-16T04:53:56.147Z,3.73
2022-12-16T04:56:58.171Z,3.88
2022-12-16T04:59:58.089Z,3.81
2022-12-16T05:02:53.254Z,3.78
2022-12-16T05:05:44.316Z,3.90
2022-12-16T05:08:41.122Z,3.94
2022-12-16T05:11:37.561Z,3.91
2022-12-16T05:14:36.493Z,3.83
2022-12-16T05:17:30.885Z,3.98
2022-12-16T05:20:33.180Z,4.09
2022-12-16T05:23:31.950Z,4.02
2022-12-16T05:26:26.927Z,3.93
2022-12-16T05:29:23.537Z,3.74
2022-12-16T05:32:14.198Z,3.73
2022-12-16T05:35:18.251Z,3.88
2022-12-16T05:38:14.943Z,3.85
2022-12-16T05:41:11.414Z,3.79
2022-12-16T05:44:11.959Z,3.69
2022-12-16T05:47:00.157Z,3.78
2022-12-16T05:50:02.107Z,3.82
2022-12-16T05:52:58.515Z,3.82
2022-12-16T05:55:52.359Z,3.92
2022-12-16T05:58:49.612Z,3.86
2022-12-16T06:01:40.671Z,3.82
2022-12-16T06:04:34.962Z,3.94
2022-12-16T06:07:26.154Z,3.96
2022-12-16T06:10:36.574Z,3.98
2022-12-16T06:13:35.721Z,3.83
2022-12-16T06:16:32.740Z,3.87
2022-12-16T06:19:29.671Z,3.88
2022-12-16T06:22:20.873Z,3.94
2022-12-16T06:25:17.922Z,3.87
2022-12-16T06:28:14.965Z,3.81
2022-12-16T06:31:08.417Z,3.74
2022-12-16T06:34:04.889Z,3.80
2022-12-16T06:36:55.766Z,3.81
2022-12-16T06:39:53.067Z,3.86
2022-12-16T06:42:47.215Z,3.83
2022-12-16T06:45:43.840Z,3.80
2022-12-16T06:48:43.469Z,3.83
2022-12-16T06:51:37.251Z,3.86
2022-12-16T06:54:34.009Z,3.88
2022-12-16T06:57:27.211Z,3.93
2022-12-16T07:00:23.588Z,3.86
2022-12-16T07:03:23.698Z,3.87
2022-12-16T07:06:31.615Z,3.89
2022-12-16T07:09:26.218Z,3.79
2022-12-16T07:12:22.641Z,3.76
2022-12-16T07:15:19.013Z,3.67
2022-12-16T07:18:19.125Z,3.81
2022-12-16T07:21:16.378Z,3.83
2022-12-16T07:24:09.928Z,3.79
2022-12-16T07:27:05.840Z,3.70
2022-12-16T07:30:03.045Z,3.78
2022-12-16T07:32:57.442Z,3.87
2022-12-16T07:35:51.425Z,3.83
2022-12-16T07:39:05.887Z,3.75
2022-12-16T07:42:02.352Z,3.80
2022-12-16T07:44:58.870Z,3.81
2022-12-16T07:48:05.103Z,3.94
2022-12-16T07:51:12.865Z,3.90
2022-12-16T07:54:12.471Z,3.88
2022-12-16T07:57:05.941Z,3.95
2022-12-16T08:00:03.060Z,3.89
2022-12-16T08:03:12.760Z,3.89
2022-12-16T08:06:07.749Z,3.85
2022-12-16T08:09:03.727Z,3.88
2022-12-16T08:12:03.340Z,4.08
2022-12-16T08:14:59.135Z,4.29
2022-12-16T08:17:55.266Z,4.47
2022-12-16T08:20:49.036Z,4.48
2022-12-16T08:23:42.520Z,4.33
2022-12-16T08:26:35.879Z,4.28
2022-12-16T08:29:45.590Z,4.18
2022-12-16T08:32:48.045Z,4.48
2022-12-16T08:35:49.162Z,4.35
2022-12-16T08:38:46.410Z,4.59
2022-12-16T08:41:40.100Z,4.57
2022-12-16T08:44:34.192Z,4.59
2022-12-16T08:47:22.486Z,4.65
2022-12-16T08:50:21.841Z,4.36
2022-12-16T08:53:34.718Z,4.39
2022-12-16T08:56:23.621Z,4.44
2022-12-16T08:59:19.977Z,4.29
2022-12-16T09:02:19.558Z,4.29
2022-12-16T09:05:16.156Z,4.30
2022-12-16T09:08:18.084Z,4.43
2022-12-16T09:11:14.477Z,4.55
2022-12-16T09:14:15.943Z,4.60
2022-12-16T09:17:12.437Z,4.60
2022-12-16T09:20:06.172Z,4.59
2022-12-16T09:23:22.730Z,4.65
2022-12-16T09:26:15.340Z,4.30
2022-12-16T09:29:24.496Z,4.59
2022-12-16T09:32:18.912Z,4.73
2022-12-16T09:35:15.065Z,4.77
2022-12-16T09:38:15.149Z,4.95
2022-12-16T09:41:12.227Z,5.02
2022-12-16T09:44:19.703Z,5.10
2022-12-16T09:47:20.147Z,5.20
2022-12-16T09:50:13.621Z,5.22
2022-12-16T09:53:19.024Z,5.23
2022-12-16T09:56:16.265Z,5.19
2022-12-16T09:59:18.103Z,5.33
2022-12-16T10:02:20.422Z,5.32
2022-12-16T10:05:20.944Z,5.42
2022-12-16T10:08:46.241Z,5.35
2022-12-16T10:11:56.807Z,5.30
2022-12-16T10:15:00.390Z,5.27
2022-12-16T10:17:51.033Z,5.10
2022-12-16T10:20:58.184Z,5.48
2022-12-16T10:24:18.401Z,5.49
2022-12-16T10:28:02.000Z,5.28
2022-12-16T10:31:03.170Z,5.36
2022-12-16T10:33:58.164Z,5.56
2022-12-16T10:36:54.165Z,5.52
2022-12-16T10:40:09.298Z,5.55
2022-12-16T10:43:30.361Z,5.73
2022-12-16T10:46:37.676Z,5.55
2022-12-16T10:49:34.617Z,5.64
2022-12-16T10:52:29.952Z,5.66
2022-12-16T10:55:34.133Z,5.42
2022-12-16T10:58:35.820Z,5.28
2022-12-16T11:01:46.537Z,5.27
2022-12-16T11:04:57.120Z,5.20
2022-12-16T11:07:51.538Z,5.22
2022-12-16T11:11:12.108Z,5.37
2022-12-16T11:14:01.192Z,5.33
2022-12-16T11:17:19.344Z,5.48
2022-12-16T11:20:33.801Z,5.39
2022-12-16T11:23:33.459Z,5.48
2022-12-16T11:26:38.775Z,5.44
2022-12-16T11:29:37.320Z,5.41
2022-12-16T11:32:47.622Z,5.53
2022-12-16T11:35:41.644Z,5.50
2022-12-16T11:39:07.787Z,5.27
2022-12-16T11:42:09.031Z,5.37
2022-12-16T11:45:13.886Z,5.13
2022-12-16T11:49:01.922Z,5.16
2022-12-16T11:52:28.461Z,5.03
2022-12-16T11:59:11.836Z,5.20
2022-12-16T12:02:17.442Z,5.30
2022-12-16T12:05:20.704Z,5.24
2022-12-16T12:08:24.667Z,5.20
2022-12-16T12:11:42.223Z,5.27
2022-12-16T12:14:51.734Z,5.19
2022-12-16T12:18:07.398Z,5.14
2022-12-16T12:21:34.965Z,5.29
2022-12-16T12:24:46.057Z,5.31
2022-12-16T12:28:07.222Z,5.23
2022-12-16T12:31:11.077Z,5.28
2022-12-16T12:34:32.149Z,4.80
2022-12-16T12:37:42.456Z,4.87
2022-12-16T12:41:05.278Z,4.87
2022-12-16T12:44:36.651Z,4.95
2022-12-16T12:47:48.985Z,4.82
2022-12-16T12:50:49.056Z,4.84
2022-12-16T12:54:15.641Z,4.91
2022-12-16T12:57:12.590Z,4.88
2022-12-16T13:00:09.288Z,5.05
2022-12-16T13:03:25.614Z,4.92
2022-12-16T13:06:21.240Z,5.13
2022-12-16T13:09:19.298Z,5.29
2022-12-16T13:12:41.613Z,5.37
2022-12-16T13:15:41.699Z,5.58
2022-12-16T13:18:43.211Z,5.71
2022-12-16T13:21:56.673Z,5.74
2022-12-16T13:25:11.678Z,5.76
2022-12-16T13:28:15.325Z,5.73
2022-12-16T13:31:25.725Z,5.79
2022-12-16T13:34:38.476Z,5.85
2022-12-16T13:37:49.021Z,5.88
2022-12-16T13:40:46.584Z,5.91
2022-12-16T13:44:24.527Z,5.93
2022-12-16T13:47:38.368Z,5.96
2022-12-16T13:51:00.391Z,5.90
2022-12-16T13:54:12.542Z,5.69
2022-12-16T13:57:07.871Z,5.49
2022-12-16T14:00:03.146Z,5.63
2022-12-16T14:03:11.023Z,5.60
2022-12-16T14:06:09.775Z,5.52
2022-12-16T14:09:08.471Z,5.50
2022-12-16T14:12:07.561Z,5.43
2022-12-16T14:15:26.501Z,5.19
2022-12-16T14:18:29.808Z,5.05
2022-12-16T14:21:31.667Z,4.96
2022-12-16T14:24:46.866Z,5.00
2022-12-16T14:27:41.193Z,5.05
2022-12-16T14:30:50.384Z,5.11
2022-12-16T14:33:47.844Z,5.17
2022-12-16T14:37:00.723Z,5.08
2022-12-16T14:40:08.089Z,5.04
2022-12-16T14:43:08.432Z,5.02
2022-12-16T14:46:06.962Z,4.92
2022-12-16T14:49:04.868Z,4.99
2022-12-16T14:52:13.215Z,4.96
2022-12-16T14:55:08.554Z,4.93
2022-12-16T14:58:03.234Z,4.92
2022-12-16T15:00:58.484Z,4.93
2022-12-16T15:03:59.610Z,4.89
2022-12-16T15:07:00.647Z,4.84
2022-12-16T15:09:55.868Z,4.99
2022-12-16T15:12:54.009Z,4.94
2022-12-16T15:15:54.837Z,4.88
2022-12-16T15:19:05.936Z,4.80
2022-12-16T15:22:06.532Z,4.69
2022-12-16T15:25:00.262Z,4.77
2022-12-16T15:28:01.022Z,4.70
2022-12-16T15:31:18.847Z,4.70
2022-12-16T15:34:24.241Z,4.75
2022-12-16T15:37:41.661Z,4.79
2022-12-16T15:40:51.142Z,4.78
2022-12-16T15:43:53.651Z,4.73
2022-12-16T15:47:06.087Z,4.74
2022-12-16T15:50:04.829Z,4.82
2022-12-16T15:53:02.767Z,4.87
2022-12-16T15:56:14.273Z,4.62
2022-12-16T15:59:07.740Z,4.52
2022-12-16T16:02:10.365Z,4.55
2022-12-16T16:05:18.486Z,4.73
2022-12-16T16:08:15.255Z,4.74
2022-12-16T16:11:15.895Z,4.59
2022-12-16T16:14:17.452Z,4.50
2022-12-16T16:17:11.447Z,4.46
2022-12-16T16:20:08.651Z,4.39
2022-12-16T16:23:05.839Z,4.28
2022-12-16T16:26:06.190Z,4.24
2022-12-16T16:29:03.126Z,4.25
2022-12-16T16:32:03.844Z,4.19
2022-12-16T16:34:56.121Z,4.14
2022-12-16T16:38:07.251Z,4.19
2022-12-16T16:41:39.810Z,4.12
2022-12-16T16:44:41.730Z,4.06
2022-12-16T16:47:44.736Z,4.02
2022-12-16T16:50:40.140Z,3.93
2022-12-16T16:53:39.485Z,3.94
2022-12-16T16:56:36.439Z,3.90
2022-12-16T16:59:34.360Z,3.88
2022-12-16T17:02:41.044Z,3.84
2022-12-16T17:05:35.873Z,3.76
2022-12-16T17:08:27.034Z,3.73
2022-12-16T17:11:33.426Z,3.64
2022-12-16T17:14:37.769Z,3.60
2022-12-16T17:17:36.021Z,3.56
2022-12-16T17:20:36.568Z,3.39
2022-12-16T17:23:33.148Z,3.36
2022-12-16T17:26:30.538Z,3.28
2022-12-16T17:29:24.965Z,3.43
2022-12-16T17:32:16.257Z,3.41
2022-12-16T17:35:14.978Z,3.64
2022-12-16T17:38:11.246Z,3.52
2022-12-16T17:41:10.128Z,3.38
2022-12-16T17:44:11.120Z,3.42
2022-12-16T17:47:14.803Z,3.08
2022-12-16T17:50:11.235Z,3.10
2022-12-16T17:53:14.955Z,3.33
2022-12-16T17:56:14.257Z,3.27
2022-12-16T17:59:11.102Z,3.35
2022-12-16T18:02:05.735Z,3.31
2022-12-16T18:04:57.068Z,3.24
2022-12-16T18:07:50.947Z,3.29
2022-12-16T18:10:47.997Z,3.11
2022-12-16T18:13:48.759Z,3.11
2022-12-16T18:16:43.294Z,3.16
2022-12-16T18:19:41.249Z,3.22
2022-12-16T18:22:45.203Z,3.18
2022-12-16T18:25:42.151Z,3.16
2022-12-16T18:28:38.969Z,3.21
2022-12-16T18:31:34.617Z,3.03
2022-12-16T18:34:28.092Z,3.25
2022-12-16T18:37:30.934Z,3.23
2022-12-16T18:40:24.226Z,3.29
2022-12-16T18:43:21.582Z,3.19
2022-12-16T18:46:24.173Z,3.10
2022-12-16T18:49:18.965Z,3.00
2022-12-16T18:52:12.932Z,3.01
2022-12-16T18:55:24.292Z,3.17
2022-12-16T18:58:49.868Z,3.35
2022-12-16T19:01:41.985Z,3.07
2022-12-16T19:04:44.881Z,3.14
2022-12-16T19:07:42.623Z,3.33
2022-12-16T19:10:44.540Z,3.26
2022-12-16T19:13:44.554Z,3.23
2022-12-16T19:16:45.807Z,3.01
2022-12-16T19:19:42.901Z,3.21
2022-12-16T19:22:37.502Z,3.29
2022-12-16T19:25:33.533Z,3.39
2022-12-16T19:28:36.960Z,3.39
2022-12-16T19:31:37.226Z,3.42
2022-12-16T19:34:35.878Z,3.34
2022-12-16T19:37:33.669Z,3.36
2022-12-16T19:40:32.235Z,3.47
2022-12-16T19:43:26.315Z,3.36
2022-12-16T19:46:17.670Z,3.38
2022-12-16T19:49:15.032Z,3.18
2022-12-16T19:52:16.249Z,3.26
2022-12-16T19:55:17.251Z,3.19
2022-12-16T19:58:09.104Z,3.43
2022-12-16T20:01:12.134Z,3.13
2022-12-16T20:04:14.727Z,3.04
2022-12-16T20:07:09.456Z,3.14
2022-12-16T20:10:03.576Z,3.21
2022-12-16T20:12:57.511Z,3.22
2022-12-16T20:15:51.888Z,3.24
2022-12-16T20:18:49.916Z,3.11
2022-12-16T20:21:48.952Z,3.07
2022-12-16T20:24:56.353Z,3.14
2022-12-16T20:27:52.892Z,3.23
2022-12-16T20:30:49.889Z,3.25
2022-12-16T20:33:47.572Z,3.31
2022-12-16T20:37:01.484Z,3.21
2022-12-16T20:39:58.547Z,3.15
2022-12-16T20:42:53.523Z,3.16
2022-12-16T20:45:47.389Z,3.12
2022-12-16T20:48:39.852Z,3.19
2022-12-16T20:51:39.497Z,3.14
2022-12-16T20:54:38.052Z,3.03
2022-12-16T20:57:34.317Z,2.96
2022-12-16T21:00:34.429Z,3.05
2022-12-16T21:03:36.969Z,2.86
2022-12-16T21:06:46.125Z,3.01
2022-12-16T21:09:45.945Z,2.87
2022-12-16T21:12:43.042Z,2.74
2022-12-16T21:15:34.367Z,2.84
2022-12-16T21:18:30.106Z,2.65
2022-12-16T21:21:21.604Z,2.88
2022-12-16T21:24:12.864Z,2.67
2022-12-16T21:27:14.352Z,2.81
2022-12-16T21:30:09.161Z,2.67
2022-12-16T21:32:57.902Z,2.85
2022-12-16T21:35:56.050Z,2.44
2022-12-16T21:38:47.765Z,2.50
2022-12-16T21:41:52.638Z,2.49
2022-12-16T21:44:50.433Z,2.62
2022-12-16T21:47:46.978Z,2.43
2022-12-16T21:50:38.301Z,2.39
2022-12-16T21:53:36.285Z,2.29
2022-12-16T21:56:32.592Z,2.30
2022-12-16T21:59:26.176Z,2.15
2022-12-16T22:02:23.038Z,2.15
2022-12-16T22:05:17.367Z,2.26
2022-12-16T22:08:17.247Z,2.11
2022-12-16T22:11:10.970Z,2.07
2022-12-16T22:14:07.773Z,2.20
2022-12-16T22:16:58.683Z,2.09
2022-12-16T22:20:01.661Z,1.92
2022-12-16T22:22:51.185Z,1.89
2022-12-16T22:25:48.693Z,1.92
2022-12-16T22:28:46.287Z,1.90
2022-12-16T22:31:47.972Z,2.03
2022-12-16T22:34:44.911Z,2.02
2022-12-16T22:37:43.752Z,2.03
2022-12-16T22:40:36.872Z,2.11
2022-12-16T22:43:25.262Z,1.83
2022-12-16T22:46:27.370Z,1.81
2022-12-16T22:49:24.128Z,1.83
2022-12-16T22:52:14.878Z,1.76
2022-12-16T22:55:11.219Z,1.70
2022-12-16T22:58:01.895Z,1.78
2022-12-16T23:01:06.877Z,1.68
2022-12-16T23:04:03.929Z,1.82
2022-12-16T23:07:02.951Z,1.62
2022-12-16T23:10:07.025Z,1.67
2022-12-16T23:12:57.514Z,1.63
2022-12-16T23:19:17.028Z,1.69
2022-12-16T23:22:13.139Z,1.49
2022-12-16T23:25:07.072Z,1.33
2022-12-16T23:28:03.782Z,1.52
2022-12-16T23:30:57.359Z,1.57
2022-12-16T23:33:59.978Z,1.44
2022-12-16T23:37:01.686Z,1.33
2022-12-16T23:39:59.209Z,1.34
2022-12-16T23:42:57.736Z,1.28
2022-12-16T23:45:51.600Z,1.39
2022-12-16T23:48:50.905Z,1.43
2022-12-16T23:51:46.386Z,1.51
2022-12-16T23:54:41.033Z,1.60
2022-12-16T23:57:37.829Z,1.61
